createdAt,value
2022-11-23T00:01:12.843Z,5.55
2022-11-23T00:03:40.477Z,5.18
2022-11-23T00:06:08.161Z,6.47
2022-11-23T00:08:35.836Z,6.28
2022-11-23T00:11:03.368Z,6.35
2022-11-23T00:13:31.161Z,5.72
2022-11-23T00:15:58.729Z,6.97
2022-11-23T00:18:26.278Z,6.32
2022-11-23T00:21:05.196Z,6.95
2022-11-23T00:23:32.753Z,6.88
2022-11-23T00:26:00.300Z,6.53
2022-11-23T00:28:27.848Z,7.22
2022-11-23T00:30:55.464Z,7.35
2022-11-23T00:33:29.067Z,5.40
2022-11-23T00:36:00.546Z,4.75
2022-11-23T00:38:28.626Z,4.93
2022-11-23T00:40:59.988Z,5.22
2022-11-23T00:43:27.931Z,4.72
2022-11-23T00:46:14.288Z,5.03
2022-11-23T00:48:43.384Z,4.35
2022-11-23T00:51:12.394Z,4.00
2022-11-23T00:53:41.172Z,3.83
2022-11-23T00:56:09.106Z,3.22
2022-11-23T00:58:40.736Z,4.07
2022-11-23T01:01:14.322Z,3.92
2022-11-23T01:03:46.642Z,3.80
2022-11-23T01:06:19.067Z,4.25
2022-11-23T01:08:50.621Z,3.92
2022-11-23T01:11:18.667Z,4.25
2022-11-23T01:13:46.285Z,3.65
2022-11-23T01:16:18.205Z,4.20
2022-11-23T01:18:53.313Z,4.15
2022-11-23T01:21:22.762Z,4.57
2022-11-23T01:23:50.296Z,4.45
2022-11-23T01:26:18.539Z,4.30
2022-11-23T01:28:46.177Z,4.70
2022-11-23T01:31:15.344Z,4.55
2022-11-23T01:33:45.671Z,4.50
2022-11-23T01:36:17.827Z,4.22
2022-11-23T01:38:46.341Z,4.13
2022-11-23T01:41:16.226Z,4.18
2022-11-23T01:43:43.774Z,3.90
2022-11-23T01:46:12.152Z,4.40
2022-11-23T01:48:45.475Z,4.35
2022-11-23T01:51:18.659Z,4.68
2022-11-23T01:53:50.758Z,4.78
2022-11-23T01:56:21.126Z,4.43
2022-11-23T01:58:51.886Z,4.70
2022-11-23T02:01:21.015Z,4.40
2022-11-23T02:03:49.177Z,4.63
2022-11-23T02:06:20.511Z,4.30
2022-11-23T02:08:48.738Z,4.47
2022-11-23T02:11:17.292Z,4.72
2022-11-23T02:13:46.164Z,4.90
2022-11-23T02:16:14.352Z,4.70
2022-11-23T02:18:43.644Z,4.63
2022-11-23T02:21:11.912Z,5.20
2022-11-23T02:23:46.553Z,5.05
2022-11-23T02:26:16.921Z,7.00
2022-11-23T02:28:46.499Z,5.88
2022-11-23T02:31:14.245Z,6.32
2022-11-23T02:33:41.926Z,5.82
2022-11-23T02:36:42.115Z,6.38
2022-11-23T02:39:19.163Z,5.90
2022-11-23T02:41:51.518Z,6.20
2022-11-23T02:44:24.680Z,4.95
2022-11-23T02:46:52.964Z,5.10
2022-11-23T02:49:20.614Z,4.30
2022-11-23T02:51:50.335Z,4.50
2022-11-23T02:54:17.935Z,4.00
2022-11-23T02:56:45.564Z,3.63
2022-11-23T02:59:13.912Z,4.20
2022-11-23T03:01:42.983Z,4.03
2022-11-23T03:04:10.637Z,4.32
2022-11-23T03:06:38.207Z,4.00
2022-11-23T03:09:05.893Z,3.58
2022-11-23T03:11:33.642Z,3.45
2022-11-23T03:14:03.717Z,4.00
2022-11-23T03:16:37.833Z,3.90
2022-11-23T03:19:05.963Z,3.63
2022-11-23T03:21:37.444Z,3.47
2022-11-23T03:24:08.460Z,3.88
2022-11-23T03:26:37.309Z,3.58
2022-11-23T03:29:10.726Z,3.85
2022-11-23T03:31:40.552Z,3.65
2022-11-23T03:34:11.906Z,3.65
2022-11-23T03:36:40.835Z,3.47
2022-11-23T03:39:09.274Z,3.50
2022-11-23T03:41:56.753Z,3.65
2022-11-23T03:44:30.019Z,3.30
2022-11-23T03:47:03.905Z,3.50
2022-11-23T03:49:34.466Z,4.32
2022-11-23T03:52:02.203Z,4.25
2022-11-23T03:54:31.231Z,4.70
2022-11-23T03:56:58.736Z,4.65
2022-11-23T03:59:26.288Z,4.22
2022-11-23T04:01:54.219Z,4.63
2022-11-23T04:04:26.733Z,4.93
2022-11-23T04:07:14.543Z,4.80
2022-11-23T04:09:49.218Z,5.70
2022-11-23T04:12:27.065Z,5.80
2022-11-23T04:14:54.675Z,5.85
2022-11-23T04:17:22.261Z,5.47
2022-11-23T04:19:49.811Z,6.15
2022-11-23T04:22:18.158Z,5.97
2022-11-23T04:24:45.809Z,6.57
2022-11-23T04:27:13.394Z,6.65
2022-11-23T04:29:43.145Z,7.05
2022-11-23T04:32:11.720Z,6.68
2022-11-23T04:34:42.571Z,6.88
2022-11-23T04:37:29.984Z,6.43
2022-11-23T04:39:57.905Z,6.78
2022-11-23T04:42:44.189Z,6.53
2022-11-23T04:45:12.110Z,6.30
2022-11-23T04:47:39.810Z,7.18
2022-11-23T04:50:12.289Z,6.63
2022-11-23T04:52:40.132Z,6.82
2022-11-23T04:55:16.312Z,6.40
2022-11-23T04:57:51.557Z,5.97
2022-11-23T05:00:19.570Z,6.20
2022-11-23T05:02:48.500Z,6.10
2022-11-23T05:05:22.274Z,4.95
2022-11-23T05:07:49.962Z,5.53
2022-11-23T05:10:19.776Z,5.35
2022-11-23T05:12:48.406Z,5.28
2022-11-23T05:15:16.176Z,4.30
2022-11-23T05:20:39.855Z,4.57
2022-11-23T05:26:03.486Z,4.45
2022-11-23T05:28:40.948Z,4.32
2022-11-23T05:31:12.222Z,3.60
2022-11-23T05:33:39.950Z,4.15
2022-11-23T05:36:13.683Z,4.50
2022-11-23T05:38:42.431Z,4.80
2022-11-23T05:41:15.539Z,5.43
2022-11-23T05:43:44.871Z,5.30
2022-11-23T05:46:18.763Z,4.90
2022-11-23T05:48:47.012Z,5.75
2022-11-23T05:51:14.542Z,5.63
2022-11-23T05:53:46.290Z,5.45
2022-11-23T05:56:27.097Z,6.18
2022-11-23T05:59:03.637Z,6.40
2022-11-23T06:01:44.174Z,7.10
2022-11-23T06:04:18.552Z,7.45
2022-11-23T06:06:46.865Z,8.38
2022-11-23T06:09:14.440Z,8.52
2022-11-23T06:11:45.893Z,9.68
2022-11-23T06:14:17.773Z,9.85
2022-11-23T06:16:47.120Z,10.70
2022-11-23T06:19:26.236Z,10.27
2022-11-23T06:21:54.891Z,11.55
2022-11-23T06:24:24.343Z,11.68
2022-11-23T06:27:16.691Z,11.30
2022-11-23T06:29:46.912Z,10.23
2022-11-23T06:32:14.688Z,10.27
2022-11-23T06:34:43.264Z,10.05
2022-11-23T06:37:11.179Z,10.43
2022-11-23T06:39:40.077Z,10.13
2022-11-23T06:42:37.296Z,10.98
2022-11-23T06:44:56.600Z,11.75
2022-11-23T06:47:26.236Z,11.07
2022-11-23T06:49:54.791Z,10.88
2022-11-23T06:52:29.823Z,10.82
2022-11-23T06:54:57.415Z,10.38
2022-11-23T06:57:26.148Z,10.77
2022-11-23T06:59:54.994Z,10.07
2022-11-23T07:02:28.915Z,11.50
2022-11-23T07:04:58.784Z,11.55
2022-11-23T07:07:28.253Z,10.70
2022-11-23T07:10:07.718Z,11.77
2022-11-23T07:12:47.167Z,11.65
2022-11-23T07:15:17.735Z,12.02
2022-11-23T07:17:48.775Z,11.60
2022-11-23T07:20:16.808Z,11.63
2022-11-23T07:22:45.819Z,9.93
2022-11-23T07:25:18.319Z,9.85
2022-11-23T07:27:45.944Z,9.07
2022-11-23T07:30:13.808Z,8.77
2022-11-23T07:32:41.392Z,7.78
2022-11-23T07:35:09.710Z,9.07
2022-11-23T07:37:39.821Z,8.25
2022-11-23T07:40:07.851Z,8.45
2022-11-23T07:42:44.246Z,9.45
2022-11-23T07:45:14.520Z,9.07
2022-11-23T07:47:46.132Z,8.85
2022-11-23T07:50:14.782Z,8.27
2022-11-23T07:52:42.356Z,8.70
2022-11-23T07:55:10.172Z,8.65
2022-11-23T07:57:37.664Z,8.52
2022-11-23T08:00:05.455Z,8.63
2022-11-23T08:02:52.765Z,8.45
2022-11-23T08:05:27.662Z,8.23
2022-11-23T08:07:59.513Z,7.80
2022-11-23T08:10:28.048Z,9.13
2022-11-23T08:12:59.112Z,8.68
2022-11-23T08:15:30.269Z,9.05
2022-11-23T08:17:58.287Z,8.95
2022-11-23T08:20:26.509Z,8.63
2022-11-23T08:22:55.980Z,9.35
2022-11-23T08:25:24.490Z,9.25
2022-11-23T08:27:55.946Z,9.13
2022-11-23T08:30:23.573Z,9.48
2022-11-23T08:32:51.160Z,9.85
2022-11-23T08:35:18.738Z,9.15
2022-11-23T08:37:46.302Z,8.73
2022-11-23T08:40:14.400Z,9.63
2022-11-23T08:42:41.962Z,10.02
2022-11-23T08:45:09.884Z,9.65
2022-11-23T08:47:37.413Z,10.73
2022-11-23T08:50:05.340Z,10.80
2022-11-23T08:52:32.876Z,10.38
2022-11-23T08:55:01.433Z,11.13
2022-11-23T08:57:29.230Z,10.88
2022-11-23T08:59:56.841Z,12.02
2022-11-23T09:02:24.420Z,12.65
2022-11-23T09:04:52.004Z,11.77
2022-11-23T09:07:19.670Z,12.20
2022-11-23T09:09:47.374Z,12.20
2022-11-23T09:12:14.950Z,11.32
2022-11-23T09:14:42.579Z,11.43
2022-11-23T09:17:10.315Z,12.65
2022-11-23T09:19:37.898Z,13.10
2022-11-23T09:22:05.463Z,12.18
2022-11-23T09:24:33.447Z,11.82
2022-11-23T09:27:01.348Z,11.02
2022-11-23T09:29:28.992Z,11.27
2022-11-23T09:31:56.594Z,11.20
2022-11-23T09:34:24.264Z,11.30
2022-11-23T09:36:51.882Z,11.35
2022-11-23T09:39:19.394Z,11.70
2022-11-23T09:42:05.802Z,11.15
2022-11-23T09:44:34.585Z,9.98
2022-11-23T09:47:08.597Z,10.55
2022-11-23T09:49:54.769Z,10.43
2022-11-23T09:52:23.240Z,9.23
2022-11-23T09:54:52.355Z,9.90
2022-11-23T09:57:21.352Z,9.63
2022-11-23T09:59:55.499Z,9.45
2022-11-23T10:02:24.849Z,8.40
2022-11-23T10:04:56.194Z,8.65
2022-11-23T10:07:37.218Z,8.02
2022-11-23T10:10:11.376Z,7.65
2022-11-23T10:12:41.913Z,7.95
2022-11-23T10:15:35.793Z,8.10
2022-11-23T10:18:15.545Z,7.97
2022-11-23T10:20:52.425Z,7.38
2022-11-23T10:23:23.001Z,7.47
2022-11-23T10:25:51.467Z,7.47
2022-11-23T10:28:20.877Z,7.35
2022-11-23T10:30:52.126Z,6.32
2022-11-23T10:33:33.935Z,6.20
2022-11-23T10:36:01.763Z,6.97
2022-11-23T10:38:29.616Z,8.02
2022-11-23T10:41:00.244Z,7.00
2022-11-23T10:43:30.226Z,6.68
2022-11-23T10:46:16.482Z,7.13
2022-11-23T10:48:44.841Z,6.85
2022-11-23T10:51:17.310Z,7.13
2022-11-23T10:53:45.003Z,7.18
2022-11-23T10:56:14.441Z,6.63
2022-11-23T10:58:44.217Z,6.35
2022-11-23T11:01:24.293Z,6.10
2022-11-23T11:03:55.277Z,5.43
2022-11-23T11:06:24.968Z,5.10
2022-11-23T11:08:54.790Z,6.00
2022-11-23T11:11:27.066Z,5.93
2022-11-23T11:14:03.824Z,5.50
2022-11-23T11:16:35.585Z,5.65
2022-11-23T11:19:22.024Z,5.97
2022-11-23T11:21:49.815Z,6.70
2022-11-23T11:24:35.482Z,6.57
2022-11-23T11:27:05.084Z,6.03
2022-11-23T11:29:40.526Z,6.68
2022-11-23T11:32:26.699Z,6.30
2022-11-23T11:34:56.325Z,6.60
2022-11-23T11:37:32.209Z,7.18
2022-11-23T11:40:07.745Z,7.30
2022-11-23T11:42:38.607Z,6.45
2022-11-23T11:45:07.874Z,5.93
2022-11-23T11:47:38.542Z,6.35
2022-11-23T11:50:20.304Z,5.50
2022-11-23T11:52:49.968Z,5.72
2022-11-23T11:55:21.800Z,5.05
2022-11-23T11:58:08.114Z,4.95
2022-11-23T12:00:39.674Z,4.90
2022-11-23T12:03:15.908Z,4.65
2022-11-23T12:05:46.325Z,5.57
2022-11-23T12:08:15.022Z,5.20
2022-11-23T12:10:51.609Z,5.95
2022-11-23T12:13:24.182Z,6.78
2022-11-23T12:16:01.229Z,6.78
2022-11-23T12:18:40.513Z,6.25
2022-11-23T12:21:21.870Z,6.82
2022-11-23T12:24:08.281Z,6.85
2022-11-23T12:26:35.816Z,7.10
2022-11-23T12:29:03.318Z,7.40
2022-11-23T12:32:00.462Z,7.93
2022-11-23T12:36:58.398Z,7.80
2022-11-23T12:39:34.692Z,8.18
2022-11-23T12:42:02.212Z,9.30
2022-11-23T12:44:42.014Z,8.88
2022-11-23T12:47:16.088Z,7.80
2022-11-23T12:50:00.154Z,7.85
2022-11-23T12:52:27.729Z,7.97
2022-11-23T12:54:58.237Z,6.88
2022-11-23T12:57:29.498Z,6.82
2022-11-23T13:00:06.221Z,7.30
2022-11-23T13:02:36.978Z,7.38
2022-11-23T13:05:23.297Z,6.78
2022-11-23T13:07:58.764Z,7.55
2022-11-23T13:10:36.517Z,7.78
2022-11-23T13:13:21.320Z,6.72
2022-11-23T13:15:51.999Z,8.00
2022-11-23T13:18:25.705Z,8.13
2022-11-23T13:20:56.282Z,8.23
2022-11-23T13:23:23.912Z,9.20
2022-11-23T13:26:09.956Z,8.10
2022-11-23T13:28:41.710Z,10.35
2022-11-23T13:31:16.124Z,10.45
2022-11-23T13:33:45.014Z,9.40
2022-11-23T13:36:19.723Z,14.68
2022-11-23T13:38:49.707Z,16.02
2022-11-23T13:41:35.623Z,19.20
2022-11-23T13:44:21.079Z,18.98
2022-11-23T13:47:08.737Z,19.27
2022-11-23T13:49:46.982Z,18.90
2022-11-23T13:52:20.661Z,17.67
2022-11-23T13:55:14.289Z,18.60
2022-11-23T13:57:42.980Z,17.83
2022-11-23T14:00:29.489Z,17.90
2022-11-23T14:03:17.049Z,18.90
2022-11-23T14:05:50.713Z,18.27
2022-11-23T14:08:19.413Z,17.15
2022-11-23T14:10:47.772Z,17.77
2022-11-23T14:13:18.767Z,18.55
2022-11-23T14:15:52.448Z,18.40
2022-11-23T14:18:35.339Z,18.85
2022-11-23T14:21:08.737Z,17.98
2022-11-23T14:23:55.982Z,18.30
2022-11-23T14:26:29.916Z,18.75
2022-11-23T14:29:10.853Z,19.20
2022-11-23T14:31:52.021Z,19.92
2022-11-23T14:34:38.255Z,20.55
2022-11-23T14:37:12.218Z,20.92
2022-11-23T14:39:53.315Z,20.45
2022-11-23T14:42:23.707Z,19.10
2022-11-23T14:44:51.257Z,18.45
2022-11-23T14:47:28.925Z,18.55
2022-11-23T14:49:57.128Z,18.63
2022-11-23T14:52:27.031Z,20.08
2022-11-23T14:54:57.138Z,20.55
2022-11-23T14:57:26.928Z,21.20
2022-11-23T14:59:56.794Z,21.33
2022-11-23T15:02:26.173Z,21.23
2022-11-23T15:04:58.026Z,22.25
2022-11-23T15:07:28.852Z,22.15
2022-11-23T15:09:59.513Z,22.35
2022-11-23T15:12:28.919Z,22.00
2022-11-23T15:18:51.908Z,23.20
2022-11-23T15:21:27.533Z,22.33
2022-11-23T15:26:46.956Z,21.48
2022-11-23T15:29:30.421Z,22.00
2022-11-23T15:34:46.502Z,22.55
2022-11-23T15:37:14.235Z,23.08
2022-11-23T15:39:42.463Z,24.45
2022-11-23T15:42:15.354Z,24.13
2022-11-23T15:44:47.439Z,24.23
2022-11-23T15:47:27.683Z,25.30
2022-11-23T15:50:08.635Z,24.77
2022-11-23T15:52:37.191Z,27.02
2022-11-23T15:55:09.801Z,25.40
2022-11-23T15:57:38.571Z,25.80
2022-11-23T16:00:06.645Z,26.67
2022-11-23T16:02:40.348Z,25.83
2022-11-23T16:05:18.855Z,24.58
2022-11-23T16:07:50.463Z,23.30
2022-11-23T16:10:20.842Z,22.60
2022-11-23T16:12:58.859Z,23.17
2022-11-23T16:15:26.579Z,23.73
2022-11-23T16:17:54.375Z,22.00
2022-11-23T16:20:24.270Z,23.33
2022-11-23T16:22:52.328Z,23.05
2022-11-23T16:25:33.363Z,22.35
2022-11-23T16:28:21.211Z,22.45
2022-11-23T16:30:49.012Z,23.73
2022-11-23T16:33:18.344Z,25.42
2022-11-23T16:35:46.197Z,24.33
2022-11-23T16:38:13.772Z,25.92
2022-11-23T16:40:45.273Z,24.85
2022-11-23T16:43:13.317Z,23.27
2022-11-23T16:45:43.251Z,22.10
2022-11-23T16:48:26.342Z,22.30
2022-11-23T16:50:55.089Z,21.25
2022-11-23T16:53:22.850Z,20.92
2022-11-23T16:55:53.866Z,21.42
2022-11-23T16:58:27.251Z,21.08
2022-11-23T17:00:55.309Z,20.98
2022-11-23T17:03:24.009Z,19.90
2022-11-23T17:05:51.922Z,19.17
2022-11-23T17:08:23.645Z,17.88
2022-11-23T17:10:52.034Z,17.75
2022-11-23T17:13:22.400Z,16.80
2022-11-23T17:15:50.952Z,16.02
2022-11-23T17:18:18.622Z,15.05
2022-11-23T17:20:46.336Z,14.80
2022-11-23T17:23:13.923Z,13.90
2022-11-23T17:25:42.179Z,13.15
2022-11-23T17:28:21.048Z,13.18
2022-11-23T17:30:48.887Z,12.93
2022-11-23T17:33:16.471Z,12.63
2022-11-23T17:35:44.161Z,10.85
2022-11-23T17:38:14.962Z,11.32
2022-11-23T17:40:42.613Z,11.18
2022-11-23T17:43:16.313Z,10.60
2022-11-23T17:45:45.149Z,10.95
2022-11-23T17:48:13.550Z,12.05
2022-11-23T17:50:41.223Z,12.32
2022-11-23T17:53:09.878Z,12.80
2022-11-23T17:55:38.285Z,12.35
2022-11-23T17:58:08.304Z,12.45
2022-11-23T18:00:35.905Z,12.95
2022-11-23T18:03:03.488Z,13.30
2022-11-23T18:05:34.099Z,14.43
2022-11-23T18:08:01.796Z,20.05
2022-11-23T18:10:29.358Z,21.35
2022-11-23T18:12:57.820Z,21.10
2022-11-23T18:15:25.402Z,21.42
2022-11-23T18:17:52.918Z,20.90
2022-11-23T18:20:20.674Z,20.30
2022-11-23T18:22:48.502Z,24.48
2022-11-23T18:25:16.098Z,22.50
2022-11-23T18:27:43.698Z,22.13
2022-11-23T18:30:11.630Z,20.63
2022-11-23T18:32:39.560Z,21.75
2022-11-23T18:35:07.452Z,22.08
2022-11-23T18:40:48.913Z,20.17
2022-11-23T18:43:16.496Z,19.15
2022-11-23T18:45:44.179Z,19.00
2022-11-23T18:48:13.097Z,19.23
2022-11-23T18:50:43.065Z,18.77
2022-11-23T18:53:14.217Z,17.50
2022-11-23T18:55:44.937Z,15.90
2022-11-23T18:58:12.568Z,16.75
2022-11-23T19:00:40.172Z,16.90
2022-11-23T19:04:39.888Z,17.35
2022-11-23T19:07:07.722Z,18.75
2022-11-23T19:09:43.132Z,19.10
2022-11-23T19:12:35.947Z,18.63
2022-11-23T19:18:12.519Z,18.83
2022-11-23T19:20:40.139Z,18.77
2022-11-23T19:23:08.100Z,18.58
2022-11-23T19:25:35.897Z,19.77
2022-11-23T19:28:03.467Z,20.73
2022-11-23T19:30:31.074Z,21.90
2022-11-23T19:32:59.192Z,23.13
2022-11-23T19:35:26.760Z,22.63
2022-11-23T19:37:54.659Z,22.15
2022-11-23T19:40:22.292Z,20.50
2022-11-23T19:42:49.938Z,18.05
2022-11-23T19:45:17.581Z,14.02
2022-11-23T19:47:45.176Z,15.57
2022-11-23T19:50:12.762Z,15.40
2022-11-23T19:53:04.133Z,16.35
2022-11-23T19:55:28.436Z,16.38
2022-11-23T19:57:56.367Z,15.88
2022-11-23T20:00:23.988Z,14.68
2022-11-23T20:02:51.548Z,13.05
2022-11-23T20:05:19.242Z,12.60
2022-11-23T20:07:49.958Z,11.10
2022-11-23T20:10:18.339Z,11.13
2022-11-23T20:12:45.940Z,10.38
2022-11-23T20:15:13.503Z,9.48
2022-11-23T20:17:41.143Z,10.00
2022-11-23T20:20:10.507Z,10.20
2022-11-23T20:22:38.093Z,10.43
2022-11-23T20:25:06.092Z,10.60
2022-11-23T20:27:34.041Z,9.32
2022-11-23T20:30:15.551Z,9.43
2022-11-23T20:32:46.702Z,8.65
2022-11-23T20:35:37.277Z,8.82
2022-11-23T20:38:47.785Z,9.70
2022-11-23T20:41:46.774Z,8.85
2022-11-23T20:44:14.947Z,8.73
2022-11-23T20:47:40.348Z,9.02
2022-11-23T20:50:08.533Z,8.93
2022-11-23T20:52:41.998Z,10.20
2022-11-23T20:55:09.854Z,12.23
2022-11-23T20:57:37.978Z,12.25
2022-11-23T21:00:20.614Z,12.93
2022-11-23T21:09:46.848Z,13.02
2022-11-23T21:12:39.114Z,13.02
2022-11-23T21:15:10.162Z,14.70
2022-11-23T21:18:07.522Z,15.75
2022-11-23T21:23:07.013Z,13.48
2022-11-23T21:25:38.538Z,14.93
2022-11-23T21:28:09.372Z,15.63
2022-11-23T21:30:37.323Z,14.98
2022-11-23T21:33:05.267Z,15.70
2022-11-23T21:39:38.301Z,15.43
2022-11-23T21:42:56.167Z,16.67
2022-11-23T21:46:14.038Z,16.73
2022-11-23T21:48:41.717Z,16.52
2022-11-23T21:51:22.738Z,16.85
2022-11-23T21:53:50.344Z,17.30
2022-11-23T21:58:23.400Z,17.40
2022-11-23T22:00:04.412Z,17.17
2022-11-23T22:02:58.181Z,18.00
2022-11-23T22:13:43.258Z,20.67
2022-11-23T22:16:12.748Z,19.90
2022-11-23T22:18:41.530Z,22.27
2022-11-23T22:21:14.528Z,22.65
2022-11-23T22:23:45.338Z,17.52
2022-11-23T22:26:13.994Z,19.50
2022-11-23T22:28:42.782Z,18.25
2022-11-23T22:31:11.529Z,17.40
2022-11-23T22:33:40.261Z,18.13
2022-11-23T22:36:09.276Z,17.88
2022-11-23T22:38:36.814Z,16.85
2022-11-23T22:41:06.061Z,16.35
2022-11-23T22:43:46.393Z,19.50
2022-11-23T22:46:15.837Z,17.10
2022-11-23T22:48:44.282Z,25.65
2022-11-23T22:51:18.954Z,20.25
2022-11-23T22:53:55.394Z,18.00
2022-11-23T22:58:52.581Z,18.95
2022-11-23T23:01:21.741Z,19.23
2022-11-23T23:03:49.521Z,17.55
2022-11-23T23:06:18.864Z,16.88
2022-11-23T23:08:47.187Z,16.73
2022-11-23T23:11:17.271Z,17.77
2022-11-23T23:13:47.995Z,16.85
2022-11-23T23:16:18.316Z,17.40
2022-11-23T23:18:46.014Z,18.60
2022-11-23T23:21:15.281Z,17.00
2022-11-23T23:23:47.214Z,16.52
2022-11-23T23:26:16.032Z,17.08
2022-11-23T23:28:46.411Z,16.20
2022-11-23T23:31:16.143Z,16.05
2022-11-23T23:33:46.817Z,15.50
2022-11-23T23:36:16.117Z,15.48
2022-11-23T23:38:46.394Z,15.10
2022-11-23T23:41:14.658Z,14.90
2022-11-23T23:43:44.300Z,14.65
2022-11-23T23:46:13.944Z,14.75
2022-11-23T23:48:42.081Z,16.17
2022-11-23T23:51:11.315Z,16.30
2022-11-23T23:53:39.405Z,17.15
2022-11-23T23:56:08.528Z,16.88
2022-11-23T23:58:36.401Z,17.08
